Time;durP1;ratioP1;P1;durP2;ratioP2;P2;SDS_P1;SDS_P2;PMS_P1;PMS_P2;Temp;Humidity;BMP_temperature;BMP_pressure;BME280_temperature;BME280_humidity;BME280_pressure;Samples;Min_cycle;Max_cycle;Signal;HPM_P1;HPM_P2
2022/12/11 00:01:37;;;;;;;;;;;;;;;;;;5089395;28;20324;-59
2022/12/11 00:04:02;;;;;;;;;;;;;;;;;;5085068;28;19924;-59
2022/12/11 00:06:28;;;;;;;;;;;;;;;;;;5066041;28;19995;-59
2022/12/11 00:08:54;;;;;;;;;;;;;;;;;;5070111;28;19999;-58
2022/12/11 00:11:20;;;;;;;;;;;;;;;;;;5068883;28;20313;-59
2022/12/11 00:13:46;;;;;;;;;;;;;;;;;;5058345;28;20014;-58
2022/12/11 00:16:12;;;;;;;;;;;;;;;;;;5064286;28;20450;-59
2022/12/11 00:18:38;;;;;;;;;;;;;;;;;;5061135;28;19970;-59
2022/12/11 00:21:04;;;;;;;;;;;;;;;;;;5070199;28;19952;-59
2022/12/11 00:23:30;;;;;;;;;;;;;;;;;;5063143;28;19916;-59
2022/12/11 00:25:56;;;;;;;;;;;;;;;;;;5062597;28;19977;-59
2022/12/11 00:28:22;;;;;;;;;;;;;;;;;;5063285;28;19964;-59
2022/12/11 00:30:48;;;;;;;;;;;;;;;;;;5068945;28;20035;-58
2022/12/11 00:33:14;;;;;;;;;;;;;;;;;;5068321;28;20326;-59
2022/12/11 00:35:40;;;;;;;;;;;;;;;;;;5066664;28;19946;-59
2022/12/11 00:38:06;;;;;;;;;;;;;;;;;;5081824;28;19960;-59
2022/12/11 00:40:32;;;;;;;;;;;;;;;;;;5067960;28;19961;-59
2022/12/11 00:42:58;;;;;;;;;;;;;;;;;;5051093;28;19970;-59
2022/12/11 00:45:23;;;;;;;;;;;;;;;;;;5064890;28;19916;-59
2022/12/11 00:47:49;;;;;;;;;;;;;;;;;;5064125;28;20415;-59
2022/12/11 00:50:15;;;;;;;;;;;;;;;;;;5064904;28;19916;-58
2022/12/11 00:52:41;;;;;;;;;;;;;;;;;;5070070;28;20310;-59
2022/12/11 00:55:07;;;;;;;;;;;;;;;;;;5068279;28;19923;-59
2022/12/11 00:57:33;;;;;;;;;;;;;;;;;;5075187;28;19920;-59
2022/12/11 00:59:59;;;;;;;;;;;;;;;;;;5078013;28;20003;-59
2022/12/11 01:02:25;;;;;;;;;;;;;;;;;;5073830;28;19920;-59
2022/12/11 01:04:51;;;;;;;;;;;;;;;;;;5082237;28;20008;-59
2022/12/11 01:07:16;;;;;;;;;;;;;;;;;;5089813;28;20458;-59
2022/12/11 01:12:27;;;;;;;;;;;;;;;;;;5063989;28;19968;-59
2022/12/11 01:14:53;;;;;;;;;;;;;;;;;;5052617;28;19956;-59
2022/12/11 01:17:19;;;;;;;;;;;;;;;;;;5079262;28;19916;-59
2022/12/11 01:19:45;;;;;;;;;;;;;;;;;;5071380;28;19916;-59
2022/12/11 01:22:10;;;;;;;;;;;;;;;;;;5070129;28;20058;-58
2022/12/11 01:24:36;;;;;;;;;;;;;;;;;;5071679;28;20359;-59
2022/12/11 01:27:02;;;;;;;;;;;;;;;;;;5076191;28;19962;-59
2022/12/11 01:29:28;;;;;;;;;;;;;;;;;;5083314;28;19956;-59
2022/12/11 01:31:54;;;;;;;;;;;;;;;;;;5071206;28;20015;-59
2022/12/11 01:34:20;;;;;;;;;;;;;;;;;;5076800;28;19916;-59
2022/12/11 01:36:46;;;;;;;;;;;;;;;;;;5082670;28;19970;-60
2022/12/11 01:39:12;;;;;;;;;;;;;;;;;;5071257;28;20000;-59
2022/12/11 01:41:38;;;;;;;;;;;;;;;;;;5067786;28;20246;-59
2022/12/11 01:44:04;;;;;;;;;;;;;;;;;;5074182;28;19916;-59
2022/12/11 01:46:30;;;;;;;;;;;;;;;;;;5081637;28;19935;-59
2022/12/11 01:48:55;;;;;;;;;;;;;;;;;;5069814;28;19912;-59
2022/12/11 01:51:21;;;;;;;;;;;;;;;;;;5090137;28;20283;-59
2022/12/11 01:53:47;;;;;;;;;;;;;;;;;;5085760;28;20397;-59
2022/12/11 01:56:13;;;;;;;;;;;;;;;;;;5094270;28;19912;-57
2022/12/11 01:58:39;;;;;;;;;;;;;;;;;;5095342;28;19946;-59
2022/12/11 02:01:05;;;;;;;;;;;;;;;;;;5106898;28;19919;-58
2022/12/11 02:03:31;;;;;;;;;;;;;;;;;;5094885;28;19912;-58
2022/12/11 02:05:57;;;;;;;;;;;;;;;;;;5095415;28;19961;-58
2022/12/11 02:08:23;;;;;;;;;;;;;;;;;;5095621;28;19957;-59
2022/12/11 02:10:48;;;;;;;;;;;;;;;;;;5093449;28;19913;-58
2022/12/11 02:13:14;;;;;;;;;;;;;;;;;;5099166;28;19912;-58
2022/12/11 02:15:40;;;;;;;;;;;;;;;;;;5092617;28;19985;-58
2022/12/11 02:18:07;;;;;;;;;;;;;;;;;;5086299;28;19971;-58
2022/12/11 02:20:33;;;;;;;;;;;;;;;;;;5095148;28;20346;-58
2022/12/11 02:22:59;;;;;;;;;;;;;;;;;;5096415;28;19963;-58
2022/12/11 02:25:25;;;;;;;;;;;;;;;;;;5094093;28;19912;-58
2022/12/11 02:27:55;;;;;;;;;;;;;;;;;;5095621;28;19920;-58
2022/12/11 02:30:21;;;;;;;;;;;;;;;;;;5092627;28;20337;-58
2022/12/11 02:32:47;;;;;;;;;;;;;;;;;;5098806;28;19920;-58
2022/12/11 02:35:13;;;;;;;;;;;;;;;;;;5094099;28;19973;-58
2022/12/11 02:37:39;;;;;;;;;;;;;;;;;;5095850;28;19954;-58
2022/12/11 02:40:04;;;;;;;;;;;;;;;;;;5103690;28;19955;-59
2022/12/11 02:42:30;;;;;;;;;;;;;;;;;;5089412;28;20484;-58
2022/12/11 02:44:56;;;;;;;;;;;;;;;;;;5096084;28;19965;-58
2022/12/11 02:47:22;;;;;;;;;;;;;;;;;;5107162;28;19966;-58
2022/12/11 02:49:48;;;;;;;;;;;;;;;;;;5093950;28;19959;-58
2022/12/11 02:52:14;;;;;;;;;;;;;;;;;;5093852;28;20002;-58
2022/12/11 02:54:40;;;;;;;;;;;;;;;;;;5091663;28;19998;-58
2022/12/11 02:57:06;;;;;;;;;;;;;;;;;;5115493;28;19972;-58
2022/12/11 02:59:32;;;;;;;;;;;;;;;;;;5096115;28;19912;-58
2022/12/11 03:01:58;;;;;;;;;;;;;;;;;;5093755;28;19989;-58
2022/12/11 03:04:24;;;;;;;;;;;;;;;;;;5091863;28;20294;-58
2022/12/11 03:06:49;;;;;;;;;;;;;;;;;;5093738;28;19916;-58
2022/12/11 03:09:15;;;;;;;;;;;;;;;;;;5093881;28;19998;-58
2022/12/11 03:11:41;;;;;;;;;;;;;;;;;;5095850;28;20011;-58
2022/12/11 03:14:07;;;;;;;;;;;;;;;;;;5084080;28;19915;-59
2022/12/11 03:16:34;;;;;;;;;;;;;;;;;;5099468;28;19951;-58
2022/12/11 03:19:00;;;;;;;;;;;;;;;;;;5092670;28;19941;-58
2022/12/11 03:21:26;;;;;;;;;;;;;;;;;;5099821;28;19923;-58
2022/12/11 03:23:51;;;;;;;;;;;;;;;;;;5099828;28;19974;-58
2022/12/11 03:26:18;;;;;;;;;;;;;;;;;;5103706;28;20328;-58
2022/12/11 03:28:44;;;;;;;;;;;;;;;;;;5094579;28;19916;-58
2022/12/11 03:31:10;;;;;;;;;;;;;;;;;;5090838;28;20340;-58
2022/12/11 03:33:36;;;;;;;;;;;;;;;;;;5090345;28;19912;-58
2022/12/11 03:36:01;;;;;;;;;;;;;;;;;;5093879;28;19947;-58
2022/12/11 03:38:27;;;;;;;;;;;;;;;;;;5095217;28;19966;-58
2022/12/11 03:40:53;;;;;;;;;;;;;;;;;;5094511;28;19912;-59
2022/12/11 03:43:19;;;;;;;;;;;;;;;;;;5092744;28;20328;-58
2022/12/11 03:45:45;;;;;;;;;;;;;;;;;;5092687;28;20620;-58
2022/12/11 03:48:11;;;;;;;;;;;;;;;;;;5095700;28;19991;-58
2022/12/11 03:50:37;;;;;;;;;;;;;;;;;;5090996;28;20313;-58
2022/12/11 03:53:03;;;;;;;;;;;;;;;;;;5094387;28;19918;-58
2022/12/11 03:55:29;;;;;;;;;;;;;;;;;;5092176;28;19915;-58
2022/12/11 03:57:55;;;;;;;;;;;;;;;;;;5092794;28;20375;-58
2022/12/11 04:00:22;;;;;;;;;;;;;;;;;;5091149;28;20271;-58
2022/12/11 04:03:11;;;;;;;;;;;;;;;;;;5093299;28;19913;-58
2022/12/11 04:05:33;;;;;;;;;;;;;;;;;;5091333;28;19984;-58
2022/12/11 04:07:59;;;;;;;;;;;;;;;;;;5100453;28;19916;-58
2022/12/11 04:10:25;;;;;;;;;;;;;;;;;;5090732;28;20068;-58
2022/12/11 04:12:51;;;;;;;;;;;;;;;;;;5091200;28;19916;-59
2022/12/11 04:15:17;;;;;;;;;;;;;;;;;;5092868;28;19970;-58
2022/12/11 04:25:57;;;;;;;;;;;;;;;;;;5094176;28;19927;-58
2022/12/11 04:28:23;;;;;;;;;;;;;;;;;;5096537;28;19912;-58
2022/12/11 04:30:49;;;;;;;;;;;;;;;;;;5099203;28;20263;-58
2022/12/11 04:33:15;;;;;;;;;;;;;;;;;;5092520;28;19918;-58
2022/12/11 04:35:40;;;;;;;;;;;;;;;;;;5092790;28;19919;-58
2022/12/11 04:38:06;;;;;;;;;;;;;;;;;;5093908;28;20379;-58
2022/12/11 04:40:32;;;;;;;;;;;;;;;;;;5090027;28;20011;-59
2022/12/11 04:42:58;;;;;;;;;;;;;;;;;;5078129;28;19931;-58
2022/12/11 04:45:24;;;;;;;;;;;;;;;;;;5089890;28;19921;-58
2022/12/11 04:47:50;;;;;;;;;;;;;;;;;;5092180;28;19916;-58
2022/12/11 04:50:16;;;;;;;;;;;;;;;;;;5091838;28;19961;-58
2022/12/11 04:52:42;;;;;;;;;;;;;;;;;;5093689;28;19919;-58
2022/12/11 04:55:08;;;;;;;;;;;;;;;;;;5092391;28;19913;-58
2022/12/11 04:57:34;;;;;;;;;;;;;;;;;;5092557;28;19978;-58
2022/12/11 05:00:00;;;;;;;;;;;;;;;;;;5092362;28;19962;-58
2022/12/11 05:02:26;;;;;;;;;;;;;;;;;;5093197;28;20305;-58
2022/12/11 05:04:52;;;;;;;;;;;;;;;;;;5077391;28;19918;-58
2022/12/11 05:07:18;;;;;;;;;;;;;;;;;;5092353;28;19913;-58
2022/12/11 05:09:44;;;;;;;;;;;;;;;;;;5089582;28;19960;-59
2022/12/11 05:12:10;;;;;;;;;;;;;;;;;;5092170;28;19989;-58
2022/12/11 05:14:36;;;;;;;;;;;;;;;;;;5088542;28;20375;-58
2022/12/11 05:17:02;;;;;;;;;;;;;;;;;;5091610;28;19918;-58
2022/12/11 05:19:27;;;;;;;;;;;;;;;;;;5088742;28;19917;-58
2022/12/11 05:21:53;;;;;;;;;;;;;;;;;;5088869;28;19912;-58
2022/12/11 05:24:19;;;;;;;;;;;;;;;;;;5085651;28;19918;-58
2022/12/11 05:26:45;;;;;;;;;;;;;;;;;;5088855;28;19920;-58
2022/12/11 05:29:11;;;;;;;;;;;;;;;;;;5091910;28;19943;-58
2022/12/11 05:31:37;;;;;;;;;;;;;;;;;;5090571;28;20045;-58
2022/12/11 05:34:03;;;;;;;;;;;;;;;;;;5093401;28;20344;-58
2022/12/11 05:36:29;;;;;;;;;;;;;;;;;;5091253;28;19927;-58
2022/12/11 05:38:55;;;;;;;;;;;;;;;;;;5084017;28;20328;-58
2022/12/11 05:41:20;;;;;;;;;;;;;;;;;;5085664;28;19948;-59
2022/12/11 05:43:47;;;;;;;;;;;;;;;;;;5095633;28;19957;-58
2022/12/11 05:46:13;;;;;;;;;;;;;;;;;;5083759;28;19943;-59
2022/12/11 05:48:39;;;;;;;;;;;;;;;;;;5097335;28;19955;-59
2022/12/11 05:51:04;;;;;;;;;;;;;;;;;;5089736;28;20341;-58
2022/12/11 05:53:30;;;;;;;;;;;;;;;;;;5091170;28;19922;-58
2022/12/11 05:55:56;;;;;;;;;;;;;;;;;;5091808;28;19922;-58
2022/12/11 05:58:22;;;;;;;;;;;;;;;;;;5088169;28;19927;-57
2022/12/11 06:00:48;;;;;;;;;;;;;;;;;;5089593;28;20015;-58
2022/12/11 06:03:14;;;;;;;;;;;;;;;;;;5089574;28;19912;-58
2022/12/11 06:05:40;;;;;;;;;;;;;;;;;;5088812;28;19951;-58
2022/12/11 06:08:06;;;;;;;;;;;;;;;;;;5088051;28;19958;-58
2022/12/11 06:10:32;;;;;;;;;;;;;;;;;;5082324;28;20323;-58
2022/12/11 06:12:58;;;;;;;;;;;;;;;;;;5086562;28;20110;-58
2022/12/11 06:15:24;;;;;;;;;;;;;;;;;;5087963;28;19925;-58
2022/12/11 06:17:50;;;;;;;;;;;;;;;;;;5101967;28;19922;-59
2022/12/11 06:20:15;;;;;;;;;;;;;;;;;;5093727;28;19912;-58
2022/12/11 06:22:41;;;;;;;;;;;;;;;;;;5087876;28;20259;-59
2022/12/11 06:25:08;;;;;;;;;;;;;;;;;;5090139;28;19950;-58
2022/12/11 06:27:34;;;;;;;;;;;;;;;;;;5091641;28;19920;-58
2022/12/11 06:30:00;;;;;;;;;;;;;;;;;;5091251;28;19924;-58
2022/12/11 06:32:25;;;;;;;;;;;;;;;;;;5076314;28;20009;-59
2022/12/11 06:34:51;;;;;;;;;;;;;;;;;;5088073;28;19912;-58
2022/12/11 06:37:17;;;;;;;;;;;;;;;;;;5089137;28;19958;-58
2022/12/11 06:39:43;;;;;;;;;;;;;;;;;;5093070;28;19943;-59
2022/12/11 06:42:09;;;;;;;;;;;;;;;;;;5084257;28;20003;-58
2022/12/11 06:44:35;;;;;;;;;;;;;;;;;;5095930;28;19912;-58
2022/12/11 06:47:01;;;;;;;;;;;;;;;;;;5091421;28;19958;-58
2022/12/11 06:49:27;;;;;;;;;;;;;;;;;;5092659;28;19948;-58
2022/12/11 06:51:53;;;;;;;;;;;;;;;;;;5092831;28;19958;-58
2022/12/11 06:54:19;;;;;;;;;;;;;;;;;;5089611;28;19965;-58
2022/12/11 06:56:45;;;;;;;;;;;;;;;;;;5092112;28;19912;-58
2022/12/11 06:59:11;;;;;;;;;;;;;;;;;;5092241;28;19924;-59
2022/12/11 07:01:37;;;;;;;;;;;;;;;;;;5093976;28;19920;-58
2022/12/11 07:04:03;;;;;;;;;;;;;;;;;;5093944;28;20313;-58
2022/12/11 07:06:30;;;;;;;;;;;;;;;;;;5093009;28;19955;-58
2022/12/11 07:08:55;;;;;;;;;;;;;;;;;;5091813;28;19934;-58
2022/12/11 07:11:21;;;;;;;;;;;;;;;;;;5092433;28;19908;-58
2022/12/11 07:13:47;;;;;;;;;;;;;;;;;;5090556;28;19912;-58
2022/12/11 07:16:13;;;;;;;;;;;;;;;;;;5094205;28;19916;-63
2022/12/11 07:18:40;;;;;;;;;;;;;;;;;;5094649;28;20054;-58
2022/12/11 07:21:06;;;;;;;;;;;;;;;;;;5092081;28;19918;-58
2022/12/11 07:23:32;;;;;;;;;;;;;;;;;;5089705;28;19912;-58
2022/12/11 07:25:57;;;;;;;;;;;;;;;;;;5095566;28;19950;-58
2022/12/11 07:28:23;;;;;;;;;;;;;;;;;;5091334;28;19958;-58
2022/12/11 07:30:49;;;;;;;;;;;;;;;;;;5092813;28;19912;-57
2022/12/11 07:33:15;;;;;;;;;;;;;;;;;;5091475;28;19919;-58
2022/12/11 07:35:41;;;;;;;;;;;;;;;;;;5089785;28;20005;-58
2022/12/11 07:38:07;;;;;;;;;;;;;;;;;;5085927;28;19995;-58
2022/12/11 07:40:33;;;;;;;;;;;;;;;;;;5082682;28;19978;-58
2022/12/11 07:42:59;;;;;;;;;;;;;;;;;;5091039;28;19912;-58
2022/12/11 07:45:28;;;;;;;;;;;;;;;;;;5089416;28;19920;-58
2022/12/11 07:47:54;;;;;;;;;;;;;;;;;;5087641;28;19975;-58
2022/12/11 07:50:20;;;;;;;;;;;;;;;;;;5094142;28;19988;-58
2022/12/11 07:52:46;;;;;;;;;;;;;;;;;;5089390;28;20038;-58
2022/12/11 07:55:12;;;;;;;;;;;;;;;;;;5090375;28;19955;-58
2022/12/11 07:57:37;;;;;;;;;;;;;;;;;;5092061;28;20024;-59
2022/12/11 08:00:03;;;;;;;;;;;;;;;;;;5088922;28;19916;-58
2022/12/11 08:02:29;;;;;;;;;;;;;;;;;;5106196;28;19966;-58
2022/12/11 08:04:55;;;;;;;;;;;;;;;;;;5091974;28;19947;-58
2022/12/11 08:07:21;;;;;;;;;;;;;;;;;;5090833;28;20002;-58
2022/12/11 08:09:47;;;;;;;;;;;;;;;;;;5088233;28;19922;-58
2022/12/11 08:12:13;;;;;;;;;;;;;;;;;;5085193;28;19912;-58
2022/12/11 08:14:39;;;;;;;;;;;;;;;;;;5086878;28;19908;-59
2022/12/11 08:17:05;;;;;;;;;;;;;;;;;;5087946;28;20065;-58
2022/12/11 08:19:30;;;;;;;;;;;;;;;;;;5085380;28;19971;-58
2022/12/11 08:21:56;;;;;;;;;;;;;;;;;;5086919;28;19916;-59
2022/12/11 08:24:22;;;;;;;;;;;;;;;;;;5092226;28;20374;-58
2022/12/11 08:26:48;;;;;;;;;;;;;;;;;;5084879;28;19948;-58
2022/12/11 08:29:14;;;;;;;;;;;;;;;;;;5092759;28;20549;-58
2022/12/11 08:31:40;;;;;;;;;;;;;;;;;;5088262;28;19969;-58
2022/12/11 08:34:06;;;;;;;;;;;;;;;;;;5090149;28;20005;-58
2022/12/11 08:36:32;;;;;;;;;;;;;;;;;;5092880;28;20340;-59
2022/12/11 08:38:58;;;;;;;;;;;;;;;;;;5094881;28;19923;-58
2022/12/11 08:41:24;;;;;;;;;;;;;;;;;;5081913;28;19952;-58
2022/12/11 08:43:53;;;;;;;;;;;;;;;;;;5087374;28;20343;-58
2022/12/11 08:46:19;;;;;;;;;;;;;;;;;;5086536;28;19916;-58
2022/12/11 08:48:45;;;;;;;;;;;;;;;;;;5089689;28;20384;-58
2022/12/11 08:51:11;;;;;;;;;;;;;;;;;;5089089;28;19916;-58
2022/12/11 08:53:38;;;;;;;;;;;;;;;;;;5097061;28;19959;-58
2022/12/11 08:56:04;;;;;;;;;;;;;;;;;;5089460;28;19919;-58
2022/12/11 08:58:30;;;;;;;;;;;;;;;;;;5087505;28;21573;-58
2022/12/11 09:00:56;;;;;;;;;;;;;;;;;;5092910;28;19912;-58
2022/12/11 09:03:21;;;;;;;;;;;;;;;;;;5078195;28;19974;-59
2022/12/11 09:05:47;;;;;;;;;;;;;;;;;;5090257;28;19947;-58
2022/12/11 09:08:13;;;;;;;;;;;;;;;;;;5088210;28;19919;-58
2022/12/11 09:10:39;;;;;;;;;;;;;;;;;;5089117;28;20360;-58
2022/12/11 09:13:05;;;;;;;;;;;;;;;;;;5085198;28;19912;-58
2022/12/11 09:15:31;;;;;;;;;;;;;;;;;;5087454;28;20510;-58
2022/12/11 09:17:57;;;;;;;;;;;;;;;;;;5086565;28;19973;-58
2022/12/11 09:20:23;;;;;;;;;;;;;;;;;;5089939;28;19912;-58
2022/12/11 09:22:49;;;;;;;;;;;;;;;;;;5099907;28;19918;-59
2022/12/11 09:25:14;;;;;;;;;;;;;;;;;;5091791;28;19947;-58
2022/12/11 09:27:40;;;;;;;;;;;;;;;;;;5089232;28;20398;-58
2022/12/11 09:30:06;;;;;;;;;;;;;;;;;;5085559;28;19927;-58
2022/12/11 09:32:32;;;;;;;;;;;;;;;;;;5090660;28;19908;-59
2022/12/11 09:34:58;;;;;;;;;;;;;;;;;;5089310;28;19917;-58
2022/12/11 09:37:24;;;;;;;;;;;;;;;;;;5086657;28;19915;-58
2022/12/11 09:39:50;;;;;;;;;;;;;;;;;;5087709;28;19996;-58
2022/12/11 09:42:16;;;;;;;;;;;;;;;;;;5092933;28;19912;-58
2022/12/11 09:44:42;;;;;;;;;;;;;;;;;;5090469;28;20295;-58
2022/12/11 09:47:08;;;;;;;;;;;;;;;;;;5086295;28;19920;-58
2022/12/11 09:49:34;;;;;;;;;;;;;;;;;;5089214;28;19955;-57
2022/12/11 09:52:00;;;;;;;;;;;;;;;;;;5087614;28;19939;-58
2022/12/11 09:54:26;;;;;;;;;;;;;;;;;;5089527;28;19948;-59
2022/12/11 09:56:51;;;;;;;;;;;;;;;;;;5099253;28;20784;-57
2022/12/11 09:59:17;;;;;;;;;;;;;;;;;;5091862;28;20388;-63
2022/12/11 10:01:43;;;;;;;;;;;;;;;;;;5088466;28;20379;-59
2022/12/11 10:04:09;;;;;;;;;;;;;;;;;;5090383;28;19999;-58
2022/12/11 10:06:35;;;;;;;;;;;;;;;;;;5085086;28;19919;-59
2022/12/11 10:09:01;;;;;;;;;;;;;;;;;;5088614;28;19912;-58
2022/12/11 10:11:27;;;;;;;;;;;;;;;;;;5083246;28;19951;-58
2022/12/11 10:13:53;;;;;;;;;;;;;;;;;;5090033;28;20344;-58
2022/12/11 10:16:19;;;;;;;;;;;;;;;;;;5095599;28;19915;-58
2022/12/11 10:18:45;;;;;;;;;;;;;;;;;;5093586;28;19923;-58
2022/12/11 10:21:11;;;;;;;;;;;;;;;;;;5090304;28;20356;-59
2022/12/11 10:23:36;;;;;;;;;;;;;;;;;;5095045;28;19964;-58
2022/12/11 10:26:02;;;;;;;;;;;;;;;;;;5093630;28;20061;-58
2022/12/11 10:28:28;;;;;;;;;;;;;;;;;;5086156;28;20348;-58
2022/12/11 10:30:54;;;;;;;;;;;;;;;;;;5077412;28;19971;-58
2022/12/11 10:33:21;;;;;;;;;;;;;;;;;;5076028;28;20355;-59
2022/12/11 10:35:47;;;;;;;;;;;;;;;;;;5088479;28;20011;-58
2022/12/11 10:38:13;;;;;;;;;;;;;;;;;;5088053;28;20019;-58
2022/12/11 10:40:39;;;;;;;;;;;;;;;;;;5091385;28;20057;-58
2022/12/11 10:43:05;;;;;;;;;;;;;;;;;;5090919;28;19912;-58
2022/12/11 10:45:31;;;;;;;;;;;;;;;;;;5091152;28;19966;-58
2022/12/11 10:47:56;;;;;;;;;;;;;;;;;;5090636;28;19912;-58
2022/12/11 10:50:22;;;;;;;;;;;;;;;;;;5093207;28;19916;-58
2022/12/11 10:52:48;;;;;;;;;;;;;;;;;;5091012;28;20384;-58
2022/12/11 10:55:14;;;;;;;;;;;;;;;;;;5094480;28;19912;-58
2022/12/11 10:57:40;;;;;;;;;;;;;;;;;;5092595;28;19920;-58
2022/12/11 11:00:06;;;;;;;;;;;;;;;;;;5091408;28;20251;-57
2022/12/11 11:02:32;;;;;;;;;;;;;;;;;;5086378;28;19951;-58
2022/12/11 11:04:58;;;;;;;;;;;;;;;;;;5092309;28;20007;-58
2022/12/11 11:07:24;;;;;;;;;;;;;;;;;;5092660;28;20650;-58
2022/12/11 11:09:50;;;;;;;;;;;;;;;;;;5092517;28;19908;-58
2022/12/11 11:12:16;;;;;;;;;;;;;;;;;;5097486;28;19912;-58
2022/12/11 11:14:42;;;;;;;;;;;;;;;;;;5090104;28;19996;-58
2022/12/11 11:17:08;;;;;;;;;;;;;;;;;;5093543;28;20294;-58
2022/12/11 11:19:34;;;;;;;;;;;;;;;;;;5086715;28;19916;-58
2022/12/11 11:22:00;;;;;;;;;;;;;;;;;;5091129;28;19994;-58
2022/12/11 11:24:25;;;;;;;;;;;;;;;;;;5098316;28;19908;-59
2022/12/11 11:26:51;;;;;;;;;;;;;;;;;;5085574;28;19921;-58
2022/12/11 11:29:17;;;;;;;;;;;;;;;;;;5089890;28;19966;-58
2022/12/11 11:31:43;;;;;;;;;;;;;;;;;;5088062;28;19916;-59
2022/12/11 11:34:09;;;;;;;;;;;;;;;;;;5089085;28;20367;-59
2022/12/11 11:36:35;;;;;;;;;;;;;;;;;;5088935;28;20477;-58
2022/12/11 11:39:01;;;;;;;;;;;;;;;;;;5090762;28;19947;-58
2022/12/11 11:41:27;;;;;;;;;;;;;;;;;;5093755;28;19923;-58
2022/12/11 11:43:53;;;;;;;;;;;;;;;;;;5091606;28;19965;-58
2022/12/11 11:46:19;;;;;;;;;;;;;;;;;;5088928;28;20353;-58
2022/12/11 11:48:45;;;;;;;;;;;;;;;;;;5090169;28;19918;-58
2022/12/11 11:51:11;;;;;;;;;;;;;;;;;;5085587;28;19912;-58
2022/12/11 11:53:38;;;;;;;;;;;;;;;;;;5087994;28;19916;-58
2022/12/11 11:56:04;;;;;;;;;;;;;;;;;;5091473;28;19923;-58
2022/12/11 11:58:29;;;;;;;;;;;;;;;;;;5097174;28;19951;-58
2022/12/11 12:00:55;;;;;;;;;;;;;;;;;;5092368;28;20398;-59
2022/12/11 12:03:22;;;;;;;;;;;;;;;;;;5085998;28;19947;-58
2022/12/11 12:05:47;;;;;;;;;;;;;;;;;;5092804;28;19912;-58
2022/12/11 12:08:13;;;;;;;;;;;;;;;;;;5087454;28;19973;-58
2022/12/11 12:10:39;;;;;;;;;;;;;;;;;;5089877;28;20267;-57
2022/12/11 12:13:05;;;;;;;;;;;;;;;;;;5086378;28;19927;-58
2022/12/11 12:15:32;;;;;;;;;;;;;;;;;;5086030;28;19952;-58
2022/12/11 12:17:58;;;;;;;;;;;;;;;;;;5088409;28;19939;-58
2022/12/11 12:20:24;;;;;;;;;;;;;;;;;;5085203;28;19922;-59
2022/12/11 12:22:50;;;;;;;;;;;;;;;;;;5090948;28;19912;-58
2022/12/11 12:25:16;;;;;;;;;;;;;;;;;;5081295;28;19912;-58
2022/12/11 12:27:42;;;;;;;;;;;;;;;;;;5089987;28;19912;-58
2022/12/11 12:30:10;;;;;;;;;;;;;;;;;;5091244;28;19940;-58
2022/12/11 12:32:36;;;;;;;;;;;;;;;;;;5090310;28;20057;-58
2022/12/11 12:35:02;;;;;;;;;;;;;;;;;;5088604;28;20511;-57
2022/12/11 12:37:28;;;;;;;;;;;;;;;;;;5092401;28;19952;-58
2022/12/11 12:39:54;;;;;;;;;;;;;;;;;;5085736;28;19923;-57
2022/12/11 12:42:20;;;;;;;;;;;;;;;;;;5089129;28;20252;-58
2022/12/11 12:44:46;;;;;;;;;;;;;;;;;;5090816;28;19964;-57
2022/12/11 12:47:12;;;;;;;;;;;;;;;;;;5090724;28;20007;-58
2022/12/11 12:49:38;;;;;;;;;;;;;;;;;;5091074;28;19953;-58
2022/12/11 12:52:04;;;;;;;;;;;;;;;;;;5091379;28;19947;-58
2022/12/11 12:54:30;;;;;;;;;;;;;;;;;;5087609;28;19969;-58
2022/12/11 12:56:56;;;;;;;;;;;;;;;;;;5085058;28;19938;-58
2022/12/11 12:59:22;;;;;;;;;;;;;;;;;;5086065;28;20494;-58
2022/12/11 13:01:48;;;;;;;;;;;;;;;;;;5091969;28;19935;-58
2022/12/11 13:04:14;;;;;;;;;;;;;;;;;;5087356;28;19972;-57
2022/12/11 13:06:40;;;;;;;;;;;;;;;;;;5092584;28;19948;-58
2022/12/11 13:09:06;;;;;;;;;;;;;;;;;;5084482;28;20326;-57
2022/12/11 13:11:32;;;;;;;;;;;;;;;;;;5086483;28;19943;-58
2022/12/11 13:13:57;;;;;;;;;;;;;;;;;;5085769;28;19920;-59
2022/12/11 13:16:23;;;;;;;;;;;;;;;;;;5080723;28;19908;-58
2022/12/11 13:18:49;;;;;;;;;;;;;;;;;;5087368;28;19959;-58
2022/12/11 13:21:15;;;;;;;;;;;;;;;;;;5082124;28;19961;-58
2022/12/11 13:23:41;;;;;;;;;;;;;;;;;;5091344;28;19983;-58
2022/12/11 13:26:07;;;;;;;;;;;;;;;;;;5090227;28;19923;-58
2022/12/11 13:28:33;;;;;;;;;;;;;;;;;;5088153;28;19908;-58
2022/12/11 13:30:59;;;;;;;;;;;;;;;;;;5088969;28;20324;-58
2022/12/11 13:33:25;;;;;;;;;;;;;;;;;;5089485;28;20338;-57
2022/12/11 13:35:51;;;;;;;;;;;;;;;;;;5085490;28;19947;-58
2022/12/11 13:38:17;;;;;;;;;;;;;;;;;;5089157;28;19939;-58
2022/12/11 13:40:42;;;;;;;;;;;;;;;;;;5088582;28;19912;-58
2022/12/11 13:43:09;;;;;;;;;;;;;;;;;;5086895;28;20033;-58
2022/12/11 13:45:34;;;;;;;;;;;;;;;;;;5087692;28;19936;-57
2022/12/11 13:48:00;;;;;;;;;;;;;;;;;;5087516;28;20053;-58
2022/12/11 13:50:26;;;;;;;;;;;;;;;;;;5091744;28;19939;-57
2022/12/11 13:52:52;;;;;;;;;;;;;;;;;;5093566;28;19912;-58
2022/12/11 13:55:18;;;;;;;;;;;;;;;;;;5091485;28;20363;-58
2022/12/11 13:57:44;;;;;;;;;;;;;;;;;;5092266;28;20329;-58
2022/12/11 14:00:10;;;;;;;;;;;;;;;;;;5090875;28;19920;-57
2022/12/11 14:02:37;;;;;;;;;;;;;;;;;;5087156;28;19977;-58
2022/12/11 14:05:03;;;;;;;;;;;;;;;;;;5088659;28;19969;-57
2022/12/11 14:07:29;;;;;;;;;;;;;;;;;;5093259;28;19951;-57
2022/12/11 14:09:55;;;;;;;;;;;;;;;;;;5094130;28;19958;-58
2022/12/11 14:12:21;;;;;;;;;;;;;;;;;;5092166;28;19912;-58
2022/12/11 14:14:47;;;;;;;;;;;;;;;;;;5082427;28;19916;-59
2022/12/11 14:17:13;;;;;;;;;;;;;;;;;;5094205;28;19994;-58
2022/12/11 14:19:39;;;;;;;;;;;;;;;;;;5086676;28;19986;-57
2022/12/11 14:22:06;;;;;;;;;;;;;;;;;;5095526;28;19946;-58
2022/12/11 14:24:32;;;;;;;;;;;;;;;;;;5087080;28;20344;-58
2022/12/11 14:26:58;;;;;;;;;;;;;;;;;;5089048;28;19999;-58
2022/12/11 14:29:25;;;;;;;;;;;;;;;;;;5091296;28;19919;-57
2022/12/11 14:31:50;;;;;;;;;;;;;;;;;;5088880;28;19926;-57
2022/12/11 14:34:16;;;;;;;;;;;;;;;;;;5087349;28;20448;-57
2022/12/11 14:36:42;;;;;;;;;;;;;;;;;;5095679;28;19916;-58
2022/12/11 14:39:08;;;;;;;;;;;;;;;;;;5095427;28;19959;-58
2022/12/11 14:41:34;;;;;;;;;;;;;;;;;;5094036;28;19947;-58
2022/12/11 14:44:00;;;;;;;;;;;;;;;;;;5090582;28;20593;-59
2022/12/11 14:46:26;;;;;;;;;;;;;;;;;;5093019;28;19912;-58
2022/12/11 14:48:52;;;;;;;;;;;;;;;;;;5094954;28;19939;-58
2022/12/11 14:51:18;;;;;;;;;;;;;;;;;;5097248;28;19918;-58
2022/12/11 14:53:44;;;;;;;;;;;;;;;;;;5099932;28;19913;-58
2022/12/11 14:56:10;;;;;;;;;;;;;;;;;;5094794;28;19912;-58
2022/12/11 14:58:35;;;;;;;;;;;;;;;;;;5103463;28;19970;-58
2022/12/11 15:01:01;;;;;;;;;;;;;;;;;;5094073;28;19912;-58
2022/12/11 15:03:27;;;;;;;;;;;;;;;;;;5093365;28;20014;-58
2022/12/11 15:05:53;;;;;;;;;;;;;;;;;;5100811;28;20346;-57
2022/12/11 15:08:23;;;;;;;;;;;;;;;;;;5093243;28;22546;-58
2022/12/11 15:10:49;;;;;;;;;;;;;;;;;;5100294;28;19923;-58
2022/12/11 15:13:15;;;;;;;;;;;;;;;;;;5094855;28;19911;-58
2022/12/11 15:15:41;;;;;;;;;;;;;;;;;;5091381;28;19916;-57
2022/12/11 15:18:07;;;;;;;;;;;;;;;;;;5094667;28;20607;-58
2022/12/11 15:20:33;;;;;;;;;;;;;;;;;;5092875;28;19981;-58
2022/12/11 15:22:59;;;;;;;;;;;;;;;;;;5092834;28;19908;-59
2022/12/11 15:25:25;;;;;;;;;;;;;;;;;;5091821;28;19973;-59
2022/12/11 15:27:51;;;;;;;;;;;;;;;;;;5092324;28;20359;-58
2022/12/11 15:30:18;;;;;;;;;;;;;;;;;;5085455;28;20366;-57
2022/12/11 15:32:44;;;;;;;;;;;;;;;;;;5092985;28;19958;-58
2022/12/11 15:35:10;;;;;;;;;;;;;;;;;;5094877;28;19955;-58
2022/12/11 15:37:38;;;;;;;;;;;;;;;;;;5091104;28;20362;-58
2022/12/11 15:40:04;;;;;;;;;;;;;;;;;;5087868;28;19938;-58
2022/12/11 15:42:30;;;;;;;;;;;;;;;;;;5094379;28;20351;-58
2022/12/11 15:44:56;;;;;;;;;;;;;;;;;;5094918;28;20014;-58
2022/12/11 15:47:22;;;;;;;;;;;;;;;;;;5092075;28;19955;-58
2022/12/11 15:49:48;;;;;;;;;;;;;;;;;;5087183;28;20006;-58
2022/12/11 15:52:14;;;;;;;;;;;;;;;;;;5087664;28;19955;-58
2022/12/11 15:54:40;;;;;;;;;;;;;;;;;;5091821;28;19912;-58
2022/12/11 15:57:06;;;;;;;;;;;;;;;;;;5091296;28;19963;-57
2022/12/11 15:59:32;;;;;;;;;;;;;;;;;;5093222;28;19985;-58
2022/12/11 16:01:58;;;;;;;;;;;;;;;;;;5092692;28;19926;-58
2022/12/11 16:04:24;;;;;;;;;;;;;;;;;;5092488;28;19958;-58
2022/12/11 16:06:49;;;;;;;;;;;;;;;;;;5097840;28;19916;-57
2022/12/11 16:09:15;;;;;;;;;;;;;;;;;;5092867;28;19995;-57
2022/12/11 16:11:41;;;;;;;;;;;;;;;;;;5087212;28;19920;-58
2022/12/11 16:14:07;;;;;;;;;;;;;;;;;;5079207;28;20444;-59
2022/12/11 16:16:33;;;;;;;;;;;;;;;;;;5087415;28;19920;-58
2022/12/11 16:18:59;;;;;;;;;;;;;;;;;;5085027;28;20260;-58
2022/12/11 16:21:25;;;;;;;;;;;;;;;;;;5088438;28;19916;-59
2022/12/11 16:23:51;;;;;;;;;;;;;;;;;;5090196;28;20336;-58
2022/12/11 16:26:17;;;;;;;;;;;;;;;;;;5091359;28;20338;-58
2022/12/11 16:28:43;;;;;;;;;;;;;;;;;;5081785;28;19916;-58
2022/12/11 16:31:09;;;;;;;;;;;;;;;;;;5089377;28;19916;-58
2022/12/11 16:33:35;;;;;;;;;;;;;;;;;;5095812;28;20003;-58
2022/12/11 16:36:00;;;;;;;;;;;;;;;;;;5085859;28;19926;-58
2022/12/11 16:38:26;;;;;;;;;;;;;;;;;;5086192;28;20061;-57
2022/12/11 16:40:52;;;;;;;;;;;;;;;;;;5091713;28;19992;-58
2022/12/11 16:43:18;;;;;;;;;;;;;;;;;;5086677;28;19954;-59
2022/12/11 16:45:44;;;;;;;;;;;;;;;;;;5085191;28;19912;-58
2022/12/11 16:48:10;;;;;;;;;;;;;;;;;;5087224;28;19951;-58